Wausau Downtown Airport
KAUW : now visible

Airfield :











YOU CAN JOIN US ON...

 
LOGIN :

Register | Disclaimer

   EN    FR    IT 

 









Legend :    VFR   Marginal VFR   IFR   Intensive IFR   Very Intensive IFR
Visi :
Ceiling :
>= 8 km
>= 3000ft
5 to 8 km
1000 to 3000 ft
1500m to 5 km
500 to 1000 ft
800 to 1500m
200 to 500 ft
< 800m
< 200 ft
Symbols :   Thunderstorms  Fog  Heavy snow  Heavy precipitations  Wind > 20 kt






- Airport Elevation : 1201 ft


KAUW - Wausau Downtown

CURRENT METAR :
  • 181954Z AUTO 14012G21KT 10SM SCT055 BKN075 BKN095 27/12 A3013 RMK AO2 SLP205 T02670117

EXPIRED METARs :
  • 181854Z AUTO 13016G23KT 10SM FEW050 SCT070 BKN085 26/11 A3016 RMK AO2 SLP212 T02610106
  • 181754Z AUTO 13012KT 10SM BKN049 26/12 A3017 RMK AO2 SLP216 T02610117 10261 20133 58013
  • 181654Z AUTO 11013G18KT 10SM FEW043 24/11 A3019 RMK AO2 SLP223 T02440111

TAF KAUW
Valid from the 18 at 18:00 until the 19 at 18:00 UTC


181744Z 1818/1918 12011G20KT P6SM BKN040
FM182200 15011G18KT P6SM -SHRA BKN045
FM190200 14010G15KT 4SM -SHRA BKN030
FM190400 15008G16KT 5SM -SHRA BR OVC012
FM191200 17009KT 4SM -SHRA BR OVC005
KZMP FIR / North America



MET'MAP, your aeronautical weather chart ! - Copyright ORBIFLY December 2007 - Disclaimer

ORBIFLY MET'MAP TEAM :

Programming & Development : Alexandra Zaïnal
Concept & original design : Baudouin d'Aumeries
Assistance for programming : Marc-Olivier Méhu
Technical & hardware support : Manuel Goepfert

Contact : metmap@orbifly.com




SOURCES & CREDITS :

   NOAA       Earth
Advisory